WebCam (dist. 5.5Km Est) Villalvernia  WebCam (dist. 5.5Km Est) Villalvernia


WebCam (dist. 7Km Ovest) Basaluzzo  WebCam (dist. 7Km Ovest) Basaluzzo


WebCam (dist.13Km Ovest) Castelferro  WebCam (dist.13Km Ovest) Castelferro


WebCam (dist. 15Km Sud) Carrosio  WebCam (dist. 15Km Sud) Carrosio


Avvisi EUMETNET-METEOalarm

Non sono previsti fenomeni meteo rilevanti    Non sono presenti avvisi di allerta meteo

NOTIZIE METEO

Report METAR

   
LIMV - Alessandria
Dati ricevuti: 16-02-2019 18:55
DATI Obsoleti
Parz. nuvoloso  
Parz. nuvoloso  
   Vento: Variabile Calma
Vento: Variabile Calma
Temperatura e Condizioni Meteo: 8°C
P.to Rugiada: 1°C
Umidità: 62%
Pressione: 1029 hPa
Copertura nuvolosa: Partly Cloudy
Visibilità: 6 km
Dettagli cop. nuvolosa: Parz. nuvoloso ft
LIMV 161755Z /////KT 6000 NSC 08/01 Q1029 RMK FEW FEW200 MON LIB VAL FOSCHIA VIS MIN 4000N
LIMJ - Genova
Dati ricevuti: 19-02-2019 04:20
Molto nuvoloso  
Molto nuvoloso  
   Vento: NE 7.4 km/h
Vento: NE 7.4 km/h
Temperatura e Condizioni Meteo: 9°C
Temperatura Vento: 8°C
P.to Rugiada: 4°C
Umidità: 71%
Pressione: 1023 hPa
Copertura nuvolosa: Mostly Cloudy
Visibilità: oltre 10 km
Dettagli cop. nuvolosa: Molto nuvoloso 3000 ft
LIMJ 190320Z 05004KT 020V080 9999 BKN030 09/04 Q1023
LIML - Milano
Dati ricevuti: 19-02-2019 04:20
Sereno  
Sereno  
   Vento: Ovest 5.6 km/h
Vento: Ovest 5.6 km/h
Temperatura e Condizioni Meteo: 6°C
Temperatura Vento: 5°C
P.to Rugiada: 4°C
Umidità: 87%
Pressione: 1021 hPa
Visibilità: oltre 10 km
Dettagli cop. nuvolosa: Sereno ft
LIML 190320Z 28003KT 250V320 CAVOK 06/04 Q1021 NOSIG
LIMF - Torino
Dati ricevuti: 19-02-2019 04:20
Sereno  
Sereno  
   Vento: W 7.4 km/h
Vento: W 7.4 km/h
Temperatura e Condizioni Meteo: 3°C
Temperatura Vento: 1°C
P.to Rugiada: 0°C
Umidità: 81%
Pressione: 1021 hPa
Visibilità: oltre 10 km
Dettagli cop. nuvolosa: Sereno ft
LIMF 190320Z 29004KT CAVOK 03/M00 Q1021
LIRA - Roma
Dati ricevuti: 19-02-2019 04:50
Molto nuvoloso  
Molto nuvoloso  
   Vento: Variabile 1.9 km/h
Vento: Variabile 1.9 km/h
Temperatura e Condizioni Meteo: 8°C
P.to Rugiada: 7°C
Umidità: 93%
Pressione: 1023 hPa
Copertura nuvolosa: Mostly Cloudy
Visibilità: 7 km
Dettagli cop. nuvolosa: Parz. nuvoloso 2000 ft,
Molto nuvoloso 3500 ft
LIRA 190350Z VRB01KT 7000 SCT020 BKN035 08/07 Q1023
LICJ - Palermo
Dati ricevuti: 19-02-2019 04:50
Sereno  
Sereno  
   Vento: SE 3.7 km/h
Vento: SE 3.7 km/h
Temperatura e Condizioni Meteo: 8°C
P.to Rugiada: 3°C
Umidità: 71%
Pressione: 1023 hPa
Visibilità: oltre 10 km
Dettagli cop. nuvolosa: Sereno ft
LICJ 190350Z 12002KT CAVOK 08/03 Q1023

Script sviluppato da  Saratoga-weather.org Adattato per il modello da  Weerstation Leuven

Potete trovare le nostre informazioni meteo anche su:

Meteonetwork

Linea Meteo

Weather Underground

AWEKAS

European Weather Network

PWS Weather

WeatherCloud

Citizen Weather Observer Program (CWOP)

Strumentazione in uso:

Meteo-stazione
Oregon Scientific WMR300

Meteo-programma
Weather Display

Meteo-server
Samsung N220

Oregon Scientific WMR300

Weather Display

Samsung N220


Banda Musicale Pozzolese


<